createdAt,value
2018-08-09T00:02:05.649Z,18.63
2018-08-09T00:04:34.772Z,17.83
2018-08-09T00:07:04.149Z,20.03
2018-08-09T00:09:33.926Z,23.03
2018-08-09T00:12:03.677Z,18.43
2018-08-09T00:14:32.883Z,20.17
2018-08-09T00:17:02.046Z,18.50
2018-08-09T00:19:30.947Z,22.00
2018-08-09T00:22:00.160Z,18.20
2018-08-09T00:24:29.847Z,16.90
2018-08-09T00:26:59.166Z,21.10
2018-08-09T00:29:28.194Z,18.27
2018-08-09T00:31:57.599Z,18.83
2018-08-09T00:34:27.078Z,17.20
2018-08-09T00:36:56.719Z,21.33
2018-08-09T00:39:26.455Z,16.73
2018-08-09T00:41:55.604Z,16.47
2018-08-09T00:44:24.709Z,18.03
2018-08-09T00:46:53.924Z,20.83
2018-08-09T00:49:23.094Z,21.00
2018-08-09T00:51:52.121Z,17.67
2018-08-09T00:54:21.726Z,20.00
2018-08-09T00:56:51.316Z,18.87
2018-08-09T00:59:20.476Z,16.80
2018-08-09T01:01:49.544Z,23.33
2018-08-09T01:04:19.679Z,17.77
2018-08-09T01:06:50.204Z,17.80
2018-08-09T01:09:19.554Z,20.50
2018-08-09T01:11:49.062Z,17.53
2018-08-09T01:14:18.183Z,16.07
2018-08-09T01:16:47.287Z,17.53
2018-08-09T01:19:16.516Z,16.23
2018-08-09T01:21:45.727Z,17.97
2018-08-09T01:24:15.670Z,20.00
2018-08-09T01:26:48.870Z,13.90
2018-08-09T01:29:19.032Z,17.43
2018-08-09T01:31:49.006Z,17.23
2018-08-09T01:34:18.650Z,18.07
2018-08-09T01:36:47.655Z,13.67
2018-08-09T01:39:16.654Z,18.43
2018-08-09T01:41:56.561Z,13.60
2018-08-09T01:44:25.882Z,17.17
2018-08-09T01:46:54.883Z,16.27
2018-08-09T01:49:24.031Z,15.00
2018-08-09T01:51:53.075Z,16.60
2018-08-09T01:54:22.130Z,13.50
2018-08-09T01:56:51.150Z,18.40
2018-08-09T01:59:20.398Z,15.17
2018-08-09T02:01:49.397Z,16.13
2018-08-09T02:04:18.456Z,18.47
2018-08-09T02:06:47.601Z,18.20
2018-08-09T02:09:21.782Z,16.50
2018-08-09T02:11:50.948Z,18.37
2018-08-09T02:14:20.024Z,15.07
2018-08-09T02:16:49.144Z,15.57
2018-08-09T02:19:19.505Z,18.37
2018-08-09T02:21:49.470Z,19.47
2018-08-09T02:24:18.581Z,16.00
2018-08-09T02:26:47.735Z,12.60
2018-08-09T02:29:16.914Z,15.90
2018-08-09T02:31:45.904Z,15.77
2018-08-09T02:34:15.206Z,17.33
2018-08-09T02:36:44.333Z,17.40
2018-08-09T02:39:13.325Z,17.33
2018-08-09T02:41:42.948Z,15.67
2018-08-09T02:44:11.927Z,14.23
2018-08-09T02:46:41.091Z,13.63
2018-08-09T02:49:11.018Z,16.03
2018-08-09T02:51:40.052Z,16.43
2018-08-09T02:54:09.207Z,15.20
2018-08-09T02:56:38.182Z,17.63
2018-08-09T02:59:07.071Z,15.57
2018-08-09T03:01:36.027Z,14.23
2018-08-09T03:04:05.432Z,15.07
2018-08-09T03:06:34.353Z,16.17
2018-08-09T03:09:03.705Z,19.67
2018-08-09T03:11:33.325Z,16.17
2018-08-09T03:14:02.247Z,15.63
2018-08-09T03:16:31.247Z,15.27
2018-08-09T03:19:00.407Z,15.07
2018-08-09T03:21:29.268Z,16.50
2018-08-09T03:23:58.419Z,16.53
2018-08-09T03:26:27.883Z,15.57
2018-08-09T03:28:56.806Z,16.90
2018-08-09T03:31:25.813Z,16.47
2018-08-09T03:33:55.169Z,16.67
2018-08-09T03:36:24.034Z,21.13
2018-08-09T03:38:53.034Z,15.43
2018-08-09T03:41:22.555Z,23.90
2018-08-09T03:43:51.565Z,18.00
2018-08-09T03:46:20.643Z,19.37
2018-08-09T03:48:49.956Z,16.73
2018-08-09T03:51:18.984Z,20.03
2018-08-09T03:53:48.003Z,18.57
2018-08-09T03:56:17.423Z,27.17
2018-08-09T03:58:46.336Z,20.37
2018-08-09T04:01:15.323Z,19.37
2018-08-09T04:03:45.422Z,19.30
2018-08-09T04:06:14.513Z,20.40
2018-08-09T04:08:43.647Z,20.93
2018-08-09T04:11:13.033Z,20.73
2018-08-09T04:13:42.240Z,25.87
2018-08-09T04:16:11.255Z,26.13
2018-08-09T04:18:41.926Z,19.93
2018-08-09T04:21:10.784Z,23.60
2018-08-09T04:23:39.678Z,18.40
2018-08-09T04:26:08.722Z,19.53
2018-08-09T04:28:37.747Z,18.00
2018-08-09T04:31:06.796Z,21.87
2018-08-09T04:33:35.864Z,17.45
2018-08-09T04:36:04.791Z,16.17
2018-08-09T04:38:33.959Z,18.80
2018-08-09T04:41:03.524Z,15.45
2018-08-09T04:43:32.414Z,13.20
2018-08-09T04:46:01.497Z,13.08
2018-08-09T04:48:31.048Z,16.20
2018-08-09T04:51:00.025Z,15.13
2018-08-09T04:53:29.062Z,14.23
2018-08-09T04:55:58.513Z,13.78
2018-08-09T04:58:27.466Z,16.35
2018-08-09T05:00:56.497Z,20.00
2018-08-09T05:03:25.819Z,19.10
2018-08-09T05:05:55.686Z,19.20
2018-08-09T05:08:24.581Z,17.15
2018-08-09T05:10:54.215Z,15.78
2018-08-09T05:13:23.452Z,17.92
2018-08-09T05:15:52.636Z,13.32
2018-08-09T05:18:22.395Z,17.27
2018-08-09T05:20:51.284Z,15.90
2018-08-09T05:23:21.368Z,17.02
2018-08-09T05:25:51.110Z,15.78
2018-08-09T05:28:19.980Z,15.95
2018-08-09T05:30:49.017Z,15.88
2018-08-09T05:33:18.386Z,18.05
2018-08-09T05:35:48.555Z,16.45
2018-08-09T05:38:17.608Z,15.58
2018-08-09T05:40:46.849Z,16.42
2018-08-09T05:43:15.875Z,21.10
2018-08-09T05:45:44.984Z,20.95
2018-08-09T05:48:14.363Z,16.35
2018-08-09T05:50:43.306Z,15.08
2018-08-09T05:53:12.196Z,15.95
2018-08-09T05:55:41.346Z,16.35
2018-08-09T05:58:10.233Z,16.02
2018-08-09T06:00:39.348Z,14.43
2018-08-09T06:03:08.299Z,16.80
2018-08-09T06:05:37.388Z,16.15
2018-08-09T06:08:06.320Z,14.53
2018-08-09T06:10:35.601Z,13.65
2018-08-09T06:13:04.484Z,16.30
2018-08-09T06:15:33.454Z,13.35
2018-08-09T06:18:02.781Z,16.45
2018-08-09T06:20:31.752Z,16.07
2018-08-09T06:23:00.667Z,18.50
2018-08-09T06:25:30.343Z,13.95
2018-08-09T06:27:59.382Z,19.85
2018-08-09T06:30:28.375Z,14.00
2018-08-09T06:32:57.369Z,19.42
2018-08-09T06:35:26.433Z,18.82
2018-08-09T06:37:55.522Z,20.20
2018-08-09T06:40:24.929Z,16.37
2018-08-09T06:42:53.868Z,14.28
2018-08-09T06:45:22.785Z,15.78
2018-08-09T06:47:51.863Z,16.20
2018-08-09T06:50:20.749Z,16.73
2018-08-09T06:52:49.719Z,14.95
2018-08-09T06:55:19.113Z,37.90
2018-08-09T06:57:48.117Z,17.10
2018-08-09T07:00:17.053Z,18.37
2018-08-09T07:02:46.556Z,22.30
2018-08-09T07:05:15.419Z,25.27
2018-08-09T07:07:44.402Z,15.78
2018-08-09T07:10:13.856Z,15.60
2018-08-09T07:12:42.805Z,16.75
2018-08-09T07:15:13.180Z,19.95
2018-08-09T07:17:42.255Z,15.85
2018-08-09T07:20:11.519Z,16.55
2018-08-09T07:22:41.587Z,18.32
2018-08-09T07:25:10.619Z,18.65
2018-08-09T07:27:39.635Z,15.83
2018-08-09T07:30:10.861Z,16.02
2018-08-09T07:32:40.222Z,14.78
2018-08-09T07:35:10.082Z,14.90
2018-08-09T07:37:39.855Z,16.23
2018-08-09T07:40:10.860Z,14.18
2018-08-09T07:42:40.026Z,16.45
2018-08-09T07:45:11.479Z,13.85
2018-08-09T07:47:40.433Z,14.00
2018-08-09T07:50:09.946Z,12.90
2018-08-09T07:52:39.322Z,12.53
2018-08-09T07:55:09.933Z,17.17
2018-08-09T07:57:39.332Z,16.32
2018-08-09T08:00:10.994Z,15.20
2018-08-09T08:02:39.978Z,14.35
2018-08-09T08:05:09.263Z,12.25
2018-08-09T08:07:38.671Z,12.07
2018-08-09T08:10:09.803Z,12.75
2018-08-09T08:12:38.871Z,10.20
2018-08-09T08:15:09.032Z,14.07
2018-08-09T08:17:38.996Z,9.38
2018-08-09T08:20:08.692Z,11.08
2018-08-09T08:22:37.719Z,9.15
2018-08-09T08:25:07.388Z,9.05
2018-08-09T08:27:36.234Z,9.25
2018-08-09T08:30:09.164Z,9.85
2018-08-09T08:35:24.331Z,7.92
2018-08-09T08:37:53.284Z,8.40
2018-08-09T08:40:22.207Z,7.95
2018-08-09T08:42:51.316Z,7.05
2018-08-09T08:45:20.342Z,8.60
2018-08-09T08:47:49.217Z,8.13
2018-08-09T08:50:18.745Z,5.08
2018-08-09T08:52:47.695Z,9.65
2018-08-09T08:55:16.630Z,7.95
2018-08-09T08:57:45.509Z,7.35
2018-08-09T09:00:14.439Z,8.70
2018-08-09T09:02:43.335Z,9.45
2018-08-09T09:05:13.810Z,15.83
2018-08-09T09:07:42.841Z,8.53
2018-08-09T09:10:13.913Z,9.00
2018-08-09T09:12:43.070Z,13.68
2018-08-09T09:15:14.347Z,5.58
2018-08-09T09:17:44.048Z,9.85
2018-08-09T09:20:16.186Z,7.03
2018-08-09T09:22:45.284Z,9.20
2018-08-09T09:25:14.460Z,6.92
2018-08-09T09:27:43.904Z,15.50
2018-08-09T09:30:14.370Z,6.47
2018-08-09T09:32:43.469Z,7.60
2018-08-09T09:35:12.317Z,8.30
2018-08-09T09:37:41.799Z,9.45
2018-08-09T09:40:11.616Z,6.55
2018-08-09T09:42:40.499Z,8.55
2018-08-09T09:45:10.322Z,8.35
2018-08-09T09:47:39.443Z,11.03
2018-08-09T09:50:10.417Z,5.60
2018-08-09T09:52:39.457Z,6.42
2018-08-09T09:55:08.360Z,6.87
2018-08-09T09:57:37.747Z,4.47
2018-08-09T10:00:12.402Z,12.53
2018-08-09T10:02:41.336Z,5.17
2018-08-09T10:05:10.384Z,7.80
2018-08-09T10:07:39.283Z,4.65
2018-08-09T10:10:08.310Z,6.45
2018-08-09T10:12:37.322Z,6.55
2018-08-09T10:15:06.429Z,11.00
2018-08-09T10:17:35.535Z,5.90
2018-08-09T10:20:04.558Z,12.70
2018-08-09T10:22:33.488Z,7.42
2018-08-09T10:25:02.436Z,6.83
2018-08-09T10:27:31.367Z,7.78
2018-08-09T10:30:00.699Z,5.85
2018-08-09T10:32:29.606Z,7.45
2018-08-09T10:34:58.587Z,5.10
2018-08-09T10:37:27.531Z,5.80
2018-08-09T10:39:56.440Z,4.47
2018-08-09T10:42:25.309Z,9.00
2018-08-09T10:44:54.258Z,8.85
2018-08-09T10:47:23.154Z,8.13
2018-08-09T10:49:52.010Z,6.53
2018-08-09T10:52:21.358Z,7.12
2018-08-09T10:54:50.274Z,7.15
2018-08-09T10:57:19.362Z,4.05
2018-08-09T10:59:48.951Z,6.97
2018-08-09T11:02:17.819Z,11.97
2018-08-09T11:04:46.757Z,5.83
2018-08-09T11:07:15.741Z,7.33
2018-08-09T11:09:44.633Z,8.23
2018-08-09T11:12:13.506Z,6.92
2018-08-09T11:14:42.872Z,3.50
2018-08-09T11:17:11.856Z,8.80
2018-08-09T11:19:40.722Z,4.08
2018-08-09T11:22:09.923Z,13.88
2018-08-09T11:24:38.932Z,8.00
2018-08-09T11:27:07.695Z,4.87
2018-08-09T11:29:37.014Z,6.60
2018-08-09T11:32:06.532Z,6.40
2018-08-09T11:34:35.499Z,4.03
2018-08-09T11:37:05.108Z,3.22
2018-08-09T11:39:34.084Z,5.92
2018-08-09T11:42:03.035Z,6.08
2018-08-09T11:44:32.400Z,4.78
2018-08-09T11:47:01.310Z,5.33
2018-08-09T11:49:30.359Z,5.03
2018-08-09T11:51:59.406Z,23.65
2018-08-09T11:54:28.323Z,3.42
2018-08-09T11:56:57.383Z,2.95
2018-08-09T11:59:27.239Z,6.65
2018-08-09T12:01:56.165Z,3.00
2018-08-09T12:04:25.188Z,4.47
2018-08-09T12:06:54.150Z,6.55
2018-08-09T12:09:23.032Z,3.87
2018-08-09T12:11:51.949Z,2.72
2018-08-09T12:14:21.288Z,8.30
2018-08-09T12:16:50.300Z,4.58
2018-08-09T12:19:19.211Z,5.17
2018-08-09T12:21:48.288Z,6.62
2018-08-09T12:24:17.194Z,4.37
2018-08-09T12:26:46.183Z,7.95
2018-08-09T12:29:15.645Z,8.80
2018-08-09T12:31:44.648Z,8.10
2018-08-09T12:34:13.572Z,6.40
2018-08-09T12:36:42.976Z,5.50
2018-08-09T12:39:13.181Z,7.20
2018-08-09T12:41:42.747Z,9.88
2018-08-09T12:44:11.908Z,6.42
2018-08-09T12:46:40.921Z,6.78
2018-08-09T12:49:10.246Z,9.53
2018-08-09T12:51:39.294Z,9.38
2018-08-09T12:54:08.335Z,3.85
2018-08-09T12:56:37.730Z,4.12
2018-08-09T12:59:06.695Z,5.17
2018-08-09T13:01:35.584Z,4.67
2018-08-09T13:04:05.018Z,4.90
2018-08-09T13:06:34.046Z,6.53
2018-08-09T13:09:02.985Z,7.78
2018-08-09T13:11:31.926Z,6.72
2018-08-09T13:14:00.804Z,4.20
2018-08-09T13:16:29.752Z,9.40
2018-08-09T13:18:58.724Z,6.05
2018-08-09T13:21:27.574Z,6.60
2018-08-09T13:23:56.554Z,8.28
2018-08-09T13:26:26.075Z,5.35
2018-08-09T13:28:55.084Z,8.30
2018-08-09T13:31:24.079Z,4.75
2018-08-09T13:33:53.216Z,5.08
2018-08-09T13:36:22.179Z,4.05
2018-08-09T13:38:51.170Z,10.20
2018-08-09T13:41:20.391Z,9.40
2018-08-09T13:43:49.528Z,6.25
2018-08-09T13:46:18.686Z,5.45
2018-08-09T13:48:48.096Z,7.50
2018-08-09T13:51:17.124Z,6.72
2018-08-09T13:53:46.025Z,9.38
2018-08-09T13:56:15.550Z,13.18
2018-08-09T13:58:44.712Z,7.70
2018-08-09T14:01:13.932Z,4.17
2018-08-09T14:03:42.933Z,10.35
2018-08-09T14:06:11.940Z,7.95
2018-08-09T14:08:40.888Z,5.05
2018-08-09T14:11:10.285Z,7.67
2018-08-09T14:13:39.401Z,11.30
2018-08-09T14:16:09.010Z,4.67
2018-08-09T14:18:38.166Z,8.18
2018-08-09T14:21:07.137Z,6.70
2018-08-09T14:23:35.996Z,4.03
2018-08-09T14:26:04.922Z,8.93
2018-08-09T14:28:33.880Z,6.33
2018-08-09T14:31:02.736Z,9.75
2018-08-09T14:33:31.694Z,6.00
2018-08-09T14:36:00.506Z,2.37
2018-08-09T14:38:29.378Z,6.10
2018-08-09T14:40:58.253Z,8.70
2018-08-09T14:43:27.090Z,5.75
2018-08-09T14:45:55.960Z,9.25
2018-08-09T14:48:25.266Z,5.33
2018-08-09T14:50:54.193Z,7.25
2018-08-09T14:53:23.023Z,7.50
2018-08-09T14:55:51.924Z,7.30
2018-08-09T14:58:20.832Z,9.85
2018-08-09T15:00:49.670Z,7.65
2018-08-09T15:03:18.541Z,8.43
2018-08-09T15:05:47.401Z,3.67
2018-08-09T15:08:16.239Z,5.15
2018-08-09T15:10:45.158Z,7.03
2018-08-09T15:13:14.012Z,3.95
2018-08-09T15:15:42.918Z,4.22
2018-08-09T15:18:11.903Z,10.68
2018-08-09T15:20:40.833Z,4.47
2018-08-09T15:23:09.750Z,8.20
2018-08-09T15:25:38.669Z,6.67
2018-08-09T15:28:07.926Z,5.53
2018-08-09T15:30:36.846Z,8.43
2018-08-09T15:33:05.960Z,8.63
2018-08-09T15:35:34.844Z,7.47
2018-08-09T15:38:03.741Z,5.90
2018-08-09T15:40:32.722Z,4.30
2018-08-09T15:43:01.612Z,5.75
2018-08-09T15:45:30.531Z,5.00
2018-08-09T15:48:00.027Z,4.45
2018-08-09T15:50:29.006Z,8.25
2018-08-09T15:52:57.986Z,7.37
2018-08-09T15:55:26.965Z,5.12
2018-08-09T15:57:56.144Z,6.08
2018-08-09T16:00:25.438Z,9.35
2018-08-09T16:02:54.651Z,5.15
2018-08-09T16:05:23.827Z,11.63
2018-08-09T16:07:52.931Z,4.87
2018-08-09T16:10:22.045Z,7.78
2018-08-09T16:12:51.036Z,5.42
2018-08-09T16:15:20.558Z,4.55
2018-08-09T16:17:50.222Z,6.65
2018-08-09T16:20:19.409Z,6.97
2018-08-09T16:22:48.680Z,9.18
2018-08-09T16:25:19.516Z,5.72
2018-08-09T16:27:49.309Z,6.90
2018-08-09T16:30:20.432Z,5.20
2018-08-09T16:32:49.721Z,7.08
2018-08-09T16:35:19.061Z,13.18
2018-08-09T16:37:48.495Z,7.37
2018-08-09T16:40:19.411Z,5.95
2018-08-09T16:42:49.218Z,5.42
2018-08-09T16:45:19.388Z,10.38
2018-08-09T16:47:49.095Z,5.08
2018-08-09T16:50:20.476Z,12.85
2018-08-09T16:52:50.973Z,7.72
2018-08-09T16:55:27.417Z,11.20
2018-08-09T16:57:56.548Z,6.95
2018-08-09T17:00:26.522Z,9.78
2018-08-09T17:02:56.097Z,9.33
2018-08-09T17:05:27.857Z,10.60
2018-08-09T17:07:57.391Z,7.78
2018-08-09T17:10:27.144Z,9.35
2018-08-09T17:12:56.256Z,10.40
2018-08-09T17:15:27.574Z,10.45
2018-08-09T17:17:57.341Z,7.03
2018-08-09T17:20:33.050Z,9.90
2018-08-09T17:23:03.425Z,10.20
2018-08-09T17:25:32.651Z,8.23
2018-08-09T17:28:02.128Z,12.28
2018-08-09T17:30:31.247Z,6.45
2018-08-09T17:33:00.440Z,11.48
2018-08-09T17:35:29.693Z,11.22
2018-08-09T17:37:58.715Z,6.47
2018-08-09T17:40:31.338Z,7.17
2018-08-09T17:43:00.948Z,6.28
2018-08-09T17:45:33.816Z,7.10
2018-08-09T17:48:03.699Z,9.00
2018-08-09T17:50:32.829Z,7.37
2018-08-09T17:53:03.791Z,7.47
2018-08-09T17:55:33.368Z,10.80
2018-08-09T17:58:02.487Z,9.43
2018-08-09T18:00:33.558Z,10.15
2018-08-09T18:03:02.632Z,13.13
2018-08-09T18:05:31.528Z,15.08
2018-08-09T18:08:01.178Z,17.07
2018-08-09T18:10:32.540Z,23.83
2018-08-09T18:13:01.806Z,11.97
2018-08-09T18:15:31.594Z,16.35
2018-08-09T18:18:01.582Z,19.85
2018-08-09T18:20:32.335Z,19.07
2018-08-09T18:23:02.000Z,15.38
2018-08-09T18:25:31.052Z,15.72
2018-08-09T18:28:00.519Z,12.43
2018-08-09T18:30:29.684Z,14.35
2018-08-09T18:32:58.917Z,9.53
2018-08-09T18:35:28.432Z,12.80
2018-08-09T18:37:57.484Z,10.80
2018-08-09T18:40:28.218Z,10.50
2018-08-09T18:42:57.368Z,6.97
2018-08-09T18:45:34.211Z,8.48
2018-08-09T18:48:03.179Z,9.15
2018-08-09T18:50:32.460Z,10.40
2018-08-09T18:53:01.720Z,6.92
2018-08-09T18:55:30.779Z,7.67
2018-08-09T18:57:59.808Z,7.85
2018-08-09T19:00:30.623Z,7.90
2018-08-09T19:02:59.847Z,5.25
2018-08-09T19:05:29.133Z,7.72
2018-08-09T19:07:58.374Z,8.93
2018-08-09T19:10:29.176Z,12.93
2018-08-09T19:12:58.351Z,10.03
2018-08-09T19:15:27.515Z,8.70
2018-08-09T19:17:56.746Z,8.25
2018-08-09T19:20:34.436Z,10.18
2018-08-09T19:23:03.737Z,9.95
2018-08-09T19:25:32.778Z,7.97
2018-08-09T19:28:02.156Z,13.20
2018-08-09T19:30:32.342Z,12.82
2018-08-09T19:33:01.480Z,11.57
2018-08-09T19:35:30.531Z,12.07
2018-08-09T19:37:59.672Z,9.40
2018-08-09T19:40:33.548Z,9.70
2018-08-09T19:43:02.705Z,8.03
2018-08-09T19:45:31.874Z,10.80
2018-08-09T19:48:04.670Z,11.97
2018-08-09T19:50:37.013Z,4.40
2018-08-09T19:53:06.332Z,6.62
2018-08-09T19:55:35.374Z,6.35
2018-08-09T19:58:04.724Z,15.58
2018-08-09T20:00:37.518Z,5.53
2018-08-09T20:03:06.440Z,5.72
2018-08-09T20:05:35.657Z,6.47
2018-08-09T20:08:04.864Z,4.55
2018-08-09T20:10:34.064Z,10.75
2018-08-09T20:13:06.076Z,11.90
2018-08-09T20:15:39.159Z,10.63
2018-08-09T20:18:09.457Z,9.65
2018-08-09T20:20:38.559Z,7.78
2018-08-09T20:23:07.752Z,9.93
2018-08-09T20:25:36.838Z,5.62
2018-08-09T20:28:06.269Z,5.58
2018-08-09T20:30:35.419Z,14.07
2018-08-09T20:33:07.303Z,8.28
2018-08-09T20:35:36.533Z,7.95
2018-08-09T20:38:07.328Z,6.70
2018-08-09T20:40:37.970Z,6.08
2018-08-09T20:43:07.084Z,11.80
2018-08-09T20:45:39.735Z,5.75
2018-08-09T20:48:08.956Z,8.60
2018-08-09T20:50:38.967Z,6.80
2018-08-09T20:53:08.177Z,7.40
2018-08-09T20:55:37.352Z,7.67
2018-08-09T20:58:06.680Z,7.17
2018-08-09T21:00:36.975Z,4.75
2018-08-09T21:03:06.115Z,4.78
2018-08-09T21:05:37.708Z,8.43
2018-08-09T21:08:07.861Z,12.00
2018-08-09T21:10:37.441Z,7.35
2018-08-09T21:13:07.035Z,6.22
2018-08-09T21:15:36.163Z,4.78
2018-08-09T21:18:05.259Z,5.92
2018-08-09T21:20:34.642Z,6.73
2018-08-09T21:23:04.958Z,5.20
2018-08-09T21:25:34.379Z,6.43
2018-08-09T21:28:08.281Z,6.97
2018-08-09T21:30:47.659Z,11.23
2018-08-09T21:33:17.321Z,8.57
2018-08-09T21:35:46.618Z,7.10
2018-08-09T21:38:15.912Z,8.70
2018-08-09T21:40:52.081Z,6.00
2018-08-09T21:43:21.379Z,10.57
2018-08-09T21:45:50.585Z,7.50
2018-08-09T21:48:30.197Z,9.17
2018-08-09T21:50:59.403Z,5.70
2018-08-09T21:53:42.479Z,8.23
2018-08-09T21:56:11.535Z,8.47
2018-08-09T21:58:41.981Z,9.17
2018-08-09T22:01:13.471Z,8.80
2018-08-09T22:03:42.646Z,8.67
2018-08-09T22:06:16.639Z,9.67
2018-08-09T22:08:51.062Z,8.67
2018-08-09T22:11:25.304Z,5.77
2018-08-09T22:14:01.029Z,11.80
2018-08-09T22:16:35.656Z,12.10
2018-08-09T22:19:11.022Z,7.37
2018-08-09T22:21:45.078Z,9.40
2018-08-09T22:24:17.823Z,8.47
2018-08-09T22:26:49.268Z,6.37
2018-08-09T22:29:20.884Z,7.77
2018-08-09T22:31:50.267Z,9.10
2018-08-09T22:34:24.938Z,6.40
2018-08-09T22:36:54.109Z,10.63
2018-08-09T22:39:23.638Z,7.77
2018-08-09T22:41:52.717Z,6.00
2018-08-09T22:44:21.798Z,7.33
2018-08-09T22:46:50.803Z,6.27
2018-08-09T22:49:20.683Z,5.63
2018-08-09T22:51:49.678Z,9.30
2018-08-09T22:54:18.774Z,8.60
2018-08-09T22:56:48.380Z,9.87
2018-08-09T22:59:17.400Z,11.27
2018-08-09T23:01:46.540Z,8.17
2018-08-09T23:04:15.824Z,7.57
2018-08-09T23:06:48.561Z,10.63
2018-08-09T23:09:17.724Z,9.83
2018-08-09T23:11:47.604Z,12.90
2018-08-09T23:14:16.878Z,9.97
2018-08-09T23:16:46.193Z,7.87
2018-08-09T23:19:15.513Z,6.50
2018-08-09T23:21:44.585Z,7.40
2018-08-09T23:24:15.116Z,8.43
2018-08-09T23:26:47.642Z,7.47
2018-08-09T23:29:16.935Z,7.13
2018-08-09T23:31:46.064Z,13.27
2018-08-09T23:34:15.080Z,8.57
2018-08-09T23:36:47.824Z,7.37
2018-08-09T23:39:17.026Z,9.50
2018-08-09T23:41:46.060Z,7.33
2018-08-09T23:44:15.265Z,9.13
2018-08-09T23:46:44.205Z,6.87
2018-08-09T23:49:13.508Z,6.33
2018-08-09T23:51:42.937Z,6.13
2018-08-09T23:54:12.935Z,6.57
2018-08-09T23:56:43.242Z,7.43
2018-08-09T23:59:12.438Z,7.87
